Time;durP1;ratioP1;P1;durP2;ratioP2;P2;SDS_P1;SDS_P2;PMS_P1;PMS_P2;Temp;Humidity;BMP_temperature;BMP_pressure;BME280_temperature;BME280_humidity;BME280_pressure;Samples;Min_cycle;Max_cycle;Signal;HPM_P1;HPM_P2
2024/01/19 00:01:38;;;;;;;11.25;8.70;;;20.60;28.00;;;;;;4949558;28;20062;-56
2024/01/19 00:04:05;;;;;;;13.25;8.93;;;20.60;28.00;;;;;;4952234;28;20066;-54
2024/01/19 00:06:34;;;;;;;13.18;8.90;;;20.60;28.10;;;;;;4950357;28;20051;-54
2024/01/19 00:09:01;;;;;;;12.43;8.43;;;20.60;28.30;;;;;;4947496;28;20491;-55
2024/01/19 00:11:28;;;;;;;12.52;8.75;;;20.60;28.10;;;;;;4945883;28;20062;-53
2024/01/19 00:13:56;;;;;;;10.75;8.52;;;20.70;28.20;;;;;;4949889;28;20504;-52
2024/01/19 00:16:23;;;;;;;13.48;8.90;;;20.70;28.20;;;;;;4949761;28;20055;-54
2024/01/19 00:18:50;;;;;;;12.18;9.20;;;20.80;28.20;;;;;;4949345;28;20420;-54
2024/01/19 00:21:18;;;;;;;13.52;9.65;;;20.80;28.20;;;;;;4944157;28;20058;-55
2024/01/19 00:23:46;;;;;;;13.07;9.52;;;20.90;28.20;;;;;;4950096;28;20687;-55
2024/01/19 00:26:14;;;;;;;13.45;10.05;;;20.90;28.20;;;;;;4944192;28;20431;-55
2024/01/19 00:28:41;;;;;;;15.52;11.05;;;21.00;28.20;;;;;;4949259;28;20051;-57
2024/01/19 00:31:09;;;;;;;13.93;10.50;;;21.00;28.10;;;;;;4949062;28;20055;-55
2024/01/19 00:33:36;;;;;;;14.05;10.73;;;21.00;28.10;;;;;;4950369;28;20841;-56
2024/01/19 00:36:04;;;;;;;13.30;10.50;;;21.00;28.10;;;;;;4944958;28;20051;-56
2024/01/19 00:38:33;;;;;;;14.85;10.50;;;21.00;28.10;;;;;;4947355;28;20066;-56
2024/01/19 00:41:02;;;;;;;12.20;9.48;;;21.00;28.10;;;;;;4947930;28;20059;-55
2024/01/19 00:43:30;;;;;;;14.45;10.15;;;21.10;28.10;;;;;;4946714;28;20060;-55
2024/01/19 00:45:57;;;;;;;13.27;9.85;;;21.10;28.10;;;;;;4948631;28;20047;-56
2024/01/19 00:48:25;;;;;;;13.98;10.05;;;21.10;28.10;;;;;;4948362;28;20051;-56
2024/01/19 00:50:52;;;;;;;13.23;10.23;;;21.20;28.10;;;;;;4945929;28;20047;-54
2024/01/19 00:53:19;;;;;;;12.85;9.70;;;21.20;28.10;;;;;;4946879;28;20084;-56
2024/01/19 00:55:47;;;;;;;13.13;9.93;;;21.30;28.10;;;;;;4945339;28;20415;-53
2024/01/19 00:58:16;;;;;;;13.45;10.13;;;21.20;28.00;;;;;;4948096;28;20056;-56
2024/01/19 01:00:43;;;;;;;13.65;10.73;;;21.30;28.00;;;;;;4948693;28;20058;-54
2024/01/19 01:03:10;;;;;;;15.65;11.18;;;21.20;28.00;;;;;;4947740;28;20047;-55
2024/01/19 01:05:38;;;;;;;15.15;11.05;;;21.30;28.00;;;;;;4946724;28;20432;-58
2024/01/19 01:08:05;;;;;;;16.90;11.43;;;21.20;27.90;;;;;;4945573;28;20057;-59
2024/01/19 01:10:32;;;;;;;14.48;11.65;;;21.20;27.90;;;;;;4946663;28;20051;-58
2024/01/19 01:13:01;;;;;;;14.07;11.27;;;21.20;27.90;;;;;;4946346;28;20083;-55
2024/01/19 01:15:30;;;;;;;15.05;12.25;;;21.20;27.90;;;;;;4945268;28;20094;-57
2024/01/19 01:17:57;;;;;;;14.40;11.05;;;21.20;27.90;;;;;;4945906;28;20051;-58
2024/01/19 01:20:24;;;;;;;15.77;11.02;;;21.20;27.90;;;;;;4940276;28;20047;-59
2024/01/19 01:22:50;;;;;;;16.25;12.45;;;21.10;27.90;;;;;;4950136;28;20058;-58
2024/01/19 01:25:18;;;;;;;14.43;11.75;;;21.10;27.90;;;;;;4946043;28;20063;-59
2024/01/19 01:27:45;;;;;;;18.70;12.27;;;21.10;27.90;;;;;;4947314;28;20070;-59
2024/01/19 01:30:12;;;;;;;15.23;11.35;;;21.00;27.90;;;;;;4945624;28;20118;-58
2024/01/19 01:32:41;;;;;;;15.55;12.15;;;21.00;27.90;;;;;;4946095;28;20070;-56
2024/01/19 01:35:08;;;;;;;16.48;12.23;;;21.00;27.90;;;;;;4948302;28;20407;-58
2024/01/19 01:37:36;;;;;;;15.52;11.43;;;21.00;27.90;;;;;;4943595;28;20302;-55
2024/01/19 01:40:03;;;;;;;14.75;11.27;;;20.90;27.80;;;;;;4945607;28;20047;-58
2024/01/19 01:42:30;;;;;;;13.57;10.68;;;20.90;27.90;;;;;;4943091;28;20411;-58
2024/01/19 01:44:58;;;;;;;12.93;10.00;;;20.80;27.90;;;;;;4956138;23;20480;-95
2024/01/19 01:47:25;;;;;;;13.57;9.82;;;20.80;27.90;;;;;;4914960;23;20046;-50
2024/01/19 01:49:55;;;;;;;11.82;8.80;;;20.80;28.00;;;;;;4926413;29;20444;-54
2024/01/19 01:52:22;;;;;;;11.30;8.23;;;20.80;28.00;;;;;;4923700;29;20059;-53
2024/01/19 01:54:50;;;;;;;11.05;8.32;;;20.80;28.00;;;;;;4928957;29;20515;-52
2024/01/19 01:57:19;;;;;;;12.32;8.50;;;20.80;28.10;;;;;;4922658;29;20059;-55
2024/01/19 01:59:46;;;;;;;9.82;7.88;;;20.90;28.10;;;;;;4927223;29;20051;-53
2024/01/19 02:02:14;;;;;;;10.25;8.13;;;20.90;28.10;;;;;;4926548;29;20059;-55
2024/01/19 02:04:42;;;;;;;9.82;7.13;;;21.00;28.10;;;;;;4922340;29;20139;-58
2024/01/19 02:07:11;;;;;;;11.35;7.65;;;21.00;28.20;;;;;;4928338;29;20059;-57
2024/01/19 02:09:39;;;;;;;17.70;7.60;;;21.00;28.20;;;;;;4927089;29;20495;-56
2024/01/19 02:12:07;;;;;;;12.60;8.75;;;21.10;28.20;;;;;;4926444;29;20480;-58
2024/01/19 02:14:34;;;;;;;20.77;8.20;;;21.10;28.10;;;;;;4923410;29;20056;-54
2024/01/19 02:17:01;;;;;;;10.48;7.03;;;21.10;28.10;;;;;;4924736;29;20059;-58
2024/01/19 02:19:29;;;;;;;11.90;7.93;;;21.20;28.30;;;;;;4927746;29;20524;-55
2024/01/19 02:21:57;;;;;;;10.48;8.35;;;21.30;28.20;;;;;;4927744;29;20055;-52
2024/01/19 02:24:25;;;;;;;14.38;8.38;;;21.30;28.10;;;;;;4926348;29;20428;-53
2024/01/19 02:26:54;;;;;;;13.88;8.90;;;21.30;28.10;;;;;;4926600;29;20059;-55
2024/01/19 02:29:22;;;;;;;11.27;8.55;;;21.30;28.00;;;;;;4924676;29;20133;-54
2024/01/19 02:31:49;;;;;;;12.98;8.50;;;21.40;28.00;;;;;;4926580;29;20562;-54
2024/01/19 02:34:29;;;;;;;13.35;8.93;;;21.40;28.00;;;;;;4932516;29;20059;-54
2024/01/19 02:36:56;;;;;;;11.60;8.93;;;21.40;27.90;;;;;;4930430;29;20055;-51
2024/01/19 02:39:24;;;;;;;10.55;8.57;;;21.40;27.90;;;;;;4925556;29;20493;-55
2024/01/19 02:41:51;;;;;;;11.00;8.65;;;21.40;27.90;;;;;;4923699;29;20047;-53
2024/01/19 02:44:19;;;;;;;12.60;8.63;;;21.40;27.90;;;;;;4924892;29;20055;-57
2024/01/19 02:46:46;;;;;;;12.40;9.00;;;21.40;27.80;;;;;;4931001;29;20085;-56
2024/01/19 02:49:13;;;;;;;10.82;8.80;;;21.40;27.80;;;;;;4928991;29;20432;-55
2024/01/19 02:51:41;;;;;;;11.52;9.20;;;21.40;27.80;;;;;;4926396;29;20058;-55
2024/01/19 02:54:08;;;;;;;11.55;8.80;;;21.30;27.80;;;;;;4927542;29;20052;-56
2024/01/19 02:56:36;;;;;;;12.00;8.55;;;21.30;27.80;;;;;;4927718;29;20047;-56
2024/01/19 02:59:03;;;;;;;12.48;9.23;;;21.30;27.80;;;;;;4924433;29;20522;-57
2024/01/19 03:01:30;;;;;;;12.85;8.30;;;21.20;27.70;;;;;;4923728;29;20059;-55
2024/01/19 03:03:58;;;;;;;11.20;8.32;;;21.20;27.80;;;;;;4928214;29;20063;-54
2024/01/19 03:06:34;;;;;;;12.13;8.43;;;21.20;27.80;;;;;;4932941;29;20054;-54
2024/01/19 03:09:02;;;;;;;9.90;7.20;;;21.10;27.70;;;;;;4932666;29;20059;-57
2024/01/19 03:18:37;;;;;;;9.18;7.00;;;21.00;27.70;;;;;;4958574;29;20038;-58
2024/01/19 03:21:04;;;;;;;9.32;7.10;;;21.00;27.70;;;;;;4926036;29;20059;-57
2024/01/19 03:23:32;;;;;;;10.50;7.30;;;20.90;27.70;;;;;;4922815;29;20492;-57
2024/01/19 03:25:59;;;;;;;10.50;6.97;;;20.90;27.80;;;;;;4910352;29;20291;-54
2024/01/19 03:28:26;;;;;;;8.38;6.47;;;20.90;27.90;;;;;;4909832;29;20055;-56
2024/01/19 03:30:53;;;;;;;8.68;6.55;;;20.80;27.90;;;;;;4922298;29;20054;-58
2024/01/19 03:33:20;;;;;;;8.63;6.50;;;20.90;28.00;;;;;;4926709;29;20526;-58
2024/01/19 03:35:49;;;;;;;8.60;6.30;;;20.90;28.00;;;;;;4925743;29;20059;-57
2024/01/19 03:38:18;;;;;;;8.75;6.20;;;20.90;28.00;;;;;;4927850;29;20060;-59
2024/01/19 03:40:47;;;;;;;7.93;6.15;;;20.90;28.00;;;;;;4926274;29;20078;-60
2024/01/19 03:43:14;;;;;;;7.72;6.45;;;21.00;28.00;;;;;;4931302;29;20480;-60
2024/01/19 03:45:41;;;;;;;8.23;6.50;;;21.00;28.00;;;;;;4930557;29;20052;-60
2024/01/19 03:48:09;;;;;;;7.93;6.45;;;21.00;28.00;;;;;;4931306;29;20067;-59
2024/01/19 03:50:37;;;;;;;7.65;6.25;;;21.00;27.90;;;;;;4925753;29;20052;-59
2024/01/19 03:53:05;;;;;;;7.28;5.70;;;21.10;27.90;;;;;;4928008;29;20427;-59
2024/01/19 03:55:32;;;;;;;7.18;5.70;;;21.10;27.90;;;;;;4927270;29;20056;-58
2024/01/19 03:57:59;;;;;;;9.00;6.45;;;21.10;27.90;;;;;;4925218;29;20567;-59
2024/01/19 04:00:26;;;;;;;7.35;5.43;;;21.10;27.90;;;;;;4926644;29;20055;-60
2024/01/19 04:02:54;;;;;;;7.43;5.93;;;21.20;28.00;;;;;;4924019;29;20048;-58
2024/01/19 04:05:21;;;;;;;6.97;5.68;;;21.20;27.90;;;;;;4928151;29;20055;-57
2024/01/19 04:07:48;;;;;;;7.35;5.95;;;21.20;27.90;;;;;;4923258;29;20059;-58
2024/01/19 04:10:17;;;;;;;9.23;6.13;;;21.30;27.90;;;;;;4923315;29;20397;-58
2024/01/19 04:12:44;;;;;;;8.40;6.03;;;21.30;27.90;;;;;;4919968;29;20062;-58
2024/01/19 04:15:11;;;;;;;9.63;6.88;;;21.30;27.80;;;;;;4927946;29;20083;-57
2024/01/19 04:17:38;;;;;;;8.50;6.10;;;21.30;27.80;;;;;;4926886;29;20066;-58
2024/01/19 04:20:07;;;;;;;9.52;6.70;;;21.30;27.80;;;;;;4909434;29;20067;-55
2024/01/19 04:22:34;;;;;;;8.60;6.25;;;21.30;27.70;;;;;;4926101;29;20416;-58
2024/01/19 04:25:02;;;;;;;7.47;6.07;;;21.30;27.70;;;;;;4926952;29;20428;-58
2024/01/19 04:27:30;;;;;;;9.43;6.00;;;21.30;27.70;;;;;;4929814;29;20063;-54
2024/01/19 04:29:57;;;;;;;8.95;6.07;;;21.30;27.70;;;;;;4928409;29;20070;-56
2024/01/19 04:32:24;;;;;;;8.75;6.40;;;21.30;27.70;;;;;;4924787;29;20052;-55
2024/01/19 04:34:52;;;;;;;8.10;6.00;;;21.30;27.70;;;;;;4922585;29;20056;-57
2024/01/19 04:37:19;;;;;;;10.90;6.25;;;21.20;27.60;;;;;;4924794;29;20052;-57
2024/01/19 04:39:46;;;;;;;8.30;6.60;;;21.20;27.60;;;;;;4928758;29;20055;-54
2024/01/19 04:42:13;;;;;;;8.25;6.47;;;21.20;27.60;;;;;;4931357;29;20492;-57
2024/01/19 04:44:42;;;;;;;10.75;6.22;;;21.10;27.60;;;;;;4925775;29;20055;-58
2024/01/19 04:47:09;;;;;;;9.45;5.75;;;21.10;27.60;;;;;;4925368;29;20047;-56
2024/01/19 04:49:37;;;;;;;7.30;5.45;;;21.10;27.70;;;;;;4927393;29;20063;-57
2024/01/19 04:52:04;;;;;;;7.43;5.85;;;21.00;27.70;;;;;;4926933;29;20055;-54
2024/01/19 04:54:31;;;;;;;9.88;5.78;;;21.00;27.70;;;;;;4924509;29;20055;-54
2024/01/19 04:56:58;;;;;;;9.75;5.45;;;21.00;27.70;;;;;;4924281;29;20520;-57
2024/01/19 04:59:26;;;;;;;8.80;5.38;;;21.00;27.70;;;;;;4927268;29;20059;-55
2024/01/19 05:01:54;;;;;;;10.27;5.50;;;21.00;27.70;;;;;;4925525;29;20044;-58
2024/01/19 05:04:22;;;;;;;10.63;5.18;;;20.90;27.80;;;;;;4930088;29;20067;-57
2024/01/19 05:06:49;;;;;;;11.30;5.03;;;20.90;27.90;;;;;;4926424;29;20074;-55
2024/01/19 05:09:16;;;;;;;9.10;4.00;;;20.90;27.90;;;;;;4928457;29;20406;-59
2024/01/19 05:11:43;;;;;;;9.90;4.53;;;20.90;28.00;;;;;;4922086;29;20052;-56
2024/01/19 05:14:11;;;;;;;6.00;4.53;;;21.00;28.00;;;;;;4925797;29;20055;-57
2024/01/19 05:16:38;;;;;;;9.38;4.22;;;21.00;27.90;;;;;;4925892;29;20060;-56
2024/01/19 05:19:07;;;;;;;10.88;5.25;;;21.00;28.00;;;;;;4926965;29;20488;-57
2024/01/19 05:21:34;;;;;;;55.50;32.70;;;21.00;27.90;;;;;;4925248;29;20048;-56
2024/01/19 05:24:01;;;;;;;43.22;28.58;;;21.00;27.70;;;;;;4925656;29;20291;-54
2024/01/19 05:26:29;;;;;;;29.98;18.48;;;21.10;27.70;;;;;;4924693;29;20539;-55
2024/01/19 05:28:56;;;;;;;22.85;13.95;;;21.10;27.60;;;;;;4923329;29;20067;-55
2024/01/19 05:31:23;;;;;;;18.70;12.48;;;21.00;27.60;;;;;;4921013;29;20059;-54
2024/01/19 05:33:51;;;;;;;20.25;11.65;;;21.10;27.70;;;;;;4927312;29;20059;-55
2024/01/19 05:36:20;;;;;;;16.67;11.07;;;21.00;27.70;;;;;;4923817;29;20056;-53
2024/01/19 05:38:47;;;;;;;16.52;10.20;;;21.00;27.60;;;;;;4925114;29;20058;-61
2024/01/19 05:41:19;;;;;;;15.30;9.48;;;21.00;27.60;;;;;;4923664;29;20052;-52
2024/01/19 05:43:46;;;;;;;15.77;9.38;;;21.00;27.70;;;;;;4925562;29;20063;-53
2024/01/19 05:49:36;;;;;;;14.02;7.97;;;21.00;27.70;;;;;;4925091;29;20516;-58
2024/01/19 05:52:05;;;;;;;11.02;7.85;;;21.00;27.70;;;;;;4907911;29;20056;-57
2024/01/19 05:54:34;;;;;;;26.55;6.97;;;20.90;27.70;;;;;;4903319;29;20504;-65
2024/01/19 05:57:01;;;;;;;12.02;6.65;;;20.90;27.80;;;;;;4903862;29;20052;-58
2024/01/19 05:59:29;;;;;;;14.65;6.05;;;20.80;27.90;;;;;;4904258;29;20651;-58
2024/01/19 06:05:19;;;;;;;44.35;26.05;;;20.80;27.70;;;;;;4910919;29;20039;-58
2024/01/19 06:07:47;;;;;;;28.45;16.40;;;20.80;27.70;;;;;;4906918;29;20062;-57
2024/01/19 06:10:15;;;;;;;23.13;13.32;;;20.70;27.60;;;;;;4901350;29;20055;-59
2024/01/19 06:12:42;;;;;;;18.00;11.48;;;20.70;27.70;;;;;;4905004;29;20071;-57
2024/01/19 06:15:10;;;;;;;20.20;10.68;;;20.60;27.80;;;;;;4903611;29;20056;-58
2024/01/19 06:17:37;;;;;;;23.48;10.40;;;20.60;27.90;;;;;;4902673;29;20528;-60
2024/01/19 06:20:05;;;;;;;13.75;8.93;;;20.60;28.00;;;;;;4905506;29;20063;-60
2024/01/19 06:22:32;;;;;;;13.23;8.38;;;20.60;28.00;;;;;;4906944;29;20056;-61
2024/01/19 06:25:00;;;;;;;24.98;14.55;;;20.60;28.00;;;;;;4906400;29;20048;-60
2024/01/19 06:27:29;;;;;;;71.07;38.05;;;20.60;28.00;;;;;;4904834;29;20056;-60
2024/01/19 06:29:56;;;;;;;74.22;47.25;;;20.60;27.90;;;;;;4904456;29;20063;-61
2024/01/19 06:32:23;;;;;;;48.30;30.48;;;20.60;27.90;;;;;;4904770;29;20570;-60
2024/01/19 06:34:50;;;;;;;35.03;22.73;;;20.60;28.00;;;;;;4906815;29;20067;-62
2024/01/19 06:37:18;;;;;;;29.60;18.58;;;20.70;28.20;;;;;;4900715;29;20059;-61
2024/01/19 06:39:46;;;;;;;26.50;17.23;;;20.70;28.20;;;;;;4906586;29;20056;-59
2024/01/19 06:42:15;;;;;;;24.48;15.02;;;20.70;28.30;;;;;;4910327;29;20052;-59
2024/01/19 06:44:43;;;;;;;19.27;12.07;;;20.80;28.40;;;;;;4908776;29;20056;-60
2024/01/19 06:47:10;;;;;;;24.27;11.88;;;20.90;28.40;;;;;;4905559;29;20072;-59
2024/01/19 06:49:37;;;;;;;20.23;10.95;;;20.90;28.40;;;;;;4918490;29;20052;-58
2024/01/19 06:52:05;;;;;;;17.77;9.48;;;21.00;28.40;;;;;;4930118;29;20488;-60
2024/01/19 06:54:33;;;;;;;14.05;9.07;;;21.00;28.30;;;;;;4930068;29;20424;-64
2024/01/19 06:57:01;;;;;;;14.13;8.45;;;21.10;28.30;;;;;;4929356;29;20059;-64
2024/01/19 06:59:29;;;;;;;14.40;8.80;;;21.20;28.30;;;;;;4926998;29;20055;-62
2024/01/19 07:01:56;;;;;;;12.32;7.35;;;21.20;28.20;;;;;;4930001;29;20059;-63
2024/01/19 07:04:25;;;;;;;11.25;7.55;;;21.30;28.20;;;;;;4930329;29;20542;-62
2024/01/19 07:07:15;;;;;;;14.15;7.93;;;21.30;28.10;;;;;;4929973;29;20063;-63
2024/01/19 07:09:44;;;;;;;13.82;7.25;;;21.40;28.00;;;;;;4929390;29;20063;-64
2024/01/19 07:12:12;;;;;;;13.35;6.75;;;21.40;28.00;;;;;;4927849;29;20400;-64
2024/01/19 07:14:41;;;;;;;8.95;6.10;;;21.40;28.00;;;;;;4930747;29;20056;-64
2024/01/19 07:17:08;;;;;;;9.65;5.47;;;21.50;28.00;;;;;;4931130;29;20063;-63
2024/01/19 07:19:37;;;;;;;10.45;6.18;;;21.50;27.90;;;;;;4927299;29;20052;-65
2024/01/19 07:22:05;;;;;;;9.45;5.40;;;21.50;27.90;;;;;;4927460;29;20056;-63
2024/01/19 07:24:35;;;;;;;11.75;5.13;;;21.60;27.80;;;;;;4926353;29;20439;-62
2024/01/19 07:27:03;;;;;;;7.10;5.03;;;21.60;27.90;;;;;;4927772;29;20062;-62
2024/01/19 07:29:31;;;;;;;9.52;5.07;;;21.60;27.90;;;;;;4928204;29;20067;-62
2024/01/19 07:32:01;;;;;;;14.13;5.30;;;21.60;27.80;;;;;;4926154;29;20520;-64
2024/01/19 07:34:28;;;;;;;19.33;5.25;;;21.60;27.80;;;;;;4926608;29;20055;-62
2024/01/19 07:36:56;;;;;;;10.40;5.20;;;21.60;27.80;;;;;;4922211;29;20055;-63
2024/01/19 07:39:26;;;;;;;15.45;5.05;;;21.60;27.70;;;;;;4928098;29;20141;-63
2024/01/19 07:41:55;;;;;;;19.17;5.82;;;21.60;27.70;;;;;;4925774;29;20063;-62
2024/01/19 07:44:25;;;;;;;7.95;5.05;;;21.60;27.70;;;;;;4926040;29;20059;-62
2024/01/19 07:46:52;;;;;;;12.65;5.18;;;21.60;27.60;;;;;;4928088;29;20221;-63
2024/01/19 07:49:21;;;;;;;10.73;5.60;;;21.50;27.60;;;;;;4928909;29;20086;-62
2024/01/19 07:51:48;;;;;;;15.23;4.97;;;21.50;27.60;;;;;;4928315;29;20047;-63
2024/01/19 07:54:16;;;;;;;8.05;5.18;;;21.40;27.50;;;;;;4932273;29;20047;-63
2024/01/19 07:56:43;;;;;;;13.95;4.97;;;21.40;27.50;;;;;;4933150;29;20059;-64
2024/01/19 07:59:11;;;;;;;19.65;5.30;;;21.40;27.60;;;;;;4932235;29;20051;-57
2024/01/19 08:01:39;;;;;;;24.05;5.40;;;21.40;27.80;;;;;;4930330;29;20051;-60
2024/01/19 08:04:06;;;;;;;18.23;5.35;;;21.30;27.90;;;;;;4928082;29;20054;-61
2024/01/19 08:06:35;;;;;;;21.63;5.43;;;21.30;27.90;;;;;;4930857;29;20071;-61
2024/01/19 08:09:02;;;;;;;12.65;5.10;;;21.30;27.90;;;;;;4929686;29;20052;-62
2024/01/19 08:11:29;;;;;;;14.32;5.05;;;21.20;27.90;;;;;;4933128;29;20051;-61
2024/01/19 08:13:56;;;;;;;12.57;4.22;;;21.20;27.90;;;;;;4932766;29;20048;-61
2024/01/19 08:16:24;;;;;;;7.57;4.45;;;21.20;28.00;;;;;;4932012;29;20059;-61
2024/01/19 08:18:51;;;;;;;9.13;4.15;;;21.30;27.90;;;;;;4926902;29;20709;-61
2024/01/19 08:21:18;;;;;;;14.85;4.65;;;21.30;27.90;;;;;;4925284;29;20528;-61
2024/01/19 08:23:46;;;;;;;30.15;4.53;;;21.30;27.90;;;;;;4926901;29;20063;-61
2024/01/19 08:26:14;;;;;;;9.07;3.85;;;21.40;28.10;;;;;;4932502;29;20416;-57
2024/01/19 08:28:45;;;;;;;12.73;4.03;;;21.40;28.10;;;;;;4930542;29;20059;-61
2024/01/19 08:31:12;;;;;;;7.40;4.03;;;21.40;28.60;;;;;;4927744;29;20059;-60
2024/01/19 08:33:40;;;;;;;8.20;3.95;;;21.40;28.10;;;;;;4924783;29;20055;-59
2024/01/19 08:36:07;;;;;;;9.80;4.03;;;21.50;28.20;;;;;;4924107;29;20420;-58
2024/01/19 08:38:35;;;;;;;12.15;4.50;;;21.50;28.30;;;;;;4930105;29;20098;-56
2024/01/19 08:41:04;;;;;;;80.35;38.65;;;21.50;28.20;;;;;;4932024;29;20420;-55
2024/01/19 08:43:32;;;;;;;56.17;28.90;;;21.60;28.20;;;;;;4931010;29;20058;-57
2024/01/19 08:46:00;;;;;;;26.45;14.75;;;21.60;28.20;;;;;;4936527;29;20051;-54
2024/01/19 08:48:28;;;;;;;21.17;11.52;;;21.60;28.20;;;;;;4930554;29;20052;-58
2024/01/19 08:50:57;;;;;;;18.33;10.10;;;21.60;28.10;;;;;;4930899;29;20063;-56
2024/01/19 08:53:27;;;;;;;13.95;8.65;;;21.70;28.10;;;;;;4929540;29;20055;-57
2024/01/19 08:55:54;;;;;;;16.20;8.52;;;21.70;28.10;;;;;;4929009;29;20047;-58
2024/01/19 08:58:23;;;;;;;13.10;8.25;;;21.70;28.00;;;;;;4930774;29;20063;-59
2024/01/19 09:00:51;;;;;;;15.00;7.53;;;21.70;28.00;;;;;;4926918;29;20063;-59
2024/01/19 09:03:18;;;;;;;13.48;7.70;;;21.70;28.00;;;;;;4930270;29;20316;-59
2024/01/19 09:05:45;;;;;;;17.13;7.47;;;21.70;28.00;;;;;;4932035;29;20134;-57
2024/01/19 09:08:12;;;;;;;16.08;7.30;;;21.70;28.10;;;;;;4925175;29;20059;-57
2024/01/19 09:10:39;;;;;;;11.50;6.63;;;21.70;28.10;;;;;;4930795;29;20070;-58
2024/01/19 09:13:06;;;;;;;14.43;6.22;;;21.60;28.00;;;;;;4929419;29;20055;-57
2024/01/19 09:15:35;;;;;;;18.42;7.88;;;21.70;28.10;;;;;;4925889;29;20060;-54
2024/01/19 09:18:02;;;;;;;15.38;6.40;;;21.60;28.10;;;;;;4926947;29;20079;-57
2024/01/19 09:20:29;;;;;;;14.45;6.40;;;21.60;28.00;;;;;;4927569;29;20408;-58
2024/01/19 09:22:56;;;;;;;13.90;6.28;;;21.60;28.10;;;;;;4929600;29;20063;-57
2024/01/19 09:25:23;;;;;;;14.68;5.78;;;21.50;28.00;;;;;;4929515;29;20056;-57
2024/01/19 09:27:51;;;;;;;13.95;5.35;;;21.50;28.00;;;;;;4929180;29;20056;-59
2024/01/19 09:30:18;;;;;;;11.02;5.90;;;21.50;28.00;;;;;;4926668;29;20048;-61
2024/01/19 09:32:47;;;;;;;10.85;6.03;;;21.40;28.00;;;;;;4927994;29;20676;-60
2024/01/19 09:35:14;;;;;;;10.52;5.80;;;21.40;28.00;;;;;;4932408;29;20054;-61
2024/01/19 09:37:41;;;;;;;10.75;5.47;;;21.40;28.00;;;;;;4928608;29;20059;-61
2024/01/19 09:40:10;;;;;;;7.35;5.32;;;21.30;28.00;;;;;;4932265;29;20056;-61
2024/01/19 09:42:40;;;;;;;10.07;5.05;;;21.30;28.00;;;;;;4928304;29;20063;-62
2024/01/19 09:45:17;;;;;;;7.85;4.70;;;21.30;28.10;;;;;;4930988;29;20396;-60
2024/01/19 09:48:00;;;;;;;9.57;5.28;;;21.20;28.00;;;;;;4927007;29;20051;-58
2024/01/19 09:50:34;;;;;;;8.45;5.03;;;21.20;28.10;;;;;;4937273;23;20401;-58
2024/01/19 09:53:10;;;;;;;6.57;4.80;;;21.20;28.20;;;;;;4963781;28;20059;-59
2024/01/19 09:55:38;;;;;;;6.40;4.85;;;21.20;28.20;;;;;;4961923;28;20054;-58
2024/01/19 09:58:05;;;;;;;6.70;4.65;;;21.20;28.20;;;;;;4965253;28;20054;-60
2024/01/19 10:00:32;;;;;;;6.15;4.22;;;21.20;28.30;;;;;;4961340;28;20055;-58
2024/01/19 10:03:02;;;;;;;8.32;5.05;;;21.20;28.30;;;;;;4963584;28;20054;-58
2024/01/19 10:05:30;;;;;;;8.73;4.47;;;21.30;28.30;;;;;;4965612;28;20055;-59
2024/01/19 10:07:58;;;;;;;6.40;4.40;;;21.30;28.30;;;;;;4964130;28;20439;-61
2024/01/19 10:10:26;;;;;;;9.93;5.30;;;21.40;28.40;;;;;;4963914;28;20055;-60
2024/01/19 10:12:53;;;;;;;6.93;4.72;;;21.40;28.30;;;;;;4959052;28;20411;-58
2024/01/19 10:15:21;;;;;;;7.15;4.22;;;21.50;28.30;;;;;;4962689;28;20130;-58
2024/01/19 10:17:48;;;;;;;7.75;4.95;;;21.50;28.30;;;;;;4963023;28;20059;-58
2024/01/19 10:20:17;;;;;;;8.32;4.40;;;21.60;28.30;;;;;;4967734;28;20063;-58
2024/01/19 10:22:45;;;;;;;8.85;4.50;;;21.60;28.30;;;;;;4965080;28;20081;-58
2024/01/19 10:25:13;;;;;;;7.15;4.60;;;21.60;28.20;;;;;;4963917;28;20051;-58
2024/01/19 10:27:48;;;;;;;6.30;4.53;;;21.70;28.20;;;;;;4964241;28;20055;-58
2024/01/19 10:30:17;;;;;;;7.18;4.40;;;21.70;28.20;;;;;;4964624;28;20059;-59
2024/01/19 10:32:45;;;;;;;7.88;4.82;;;21.80;28.10;;;;;;4963178;28;20062;-58
2024/01/19 10:35:15;;;;;;;5.95;4.30;;;21.80;28.10;;;;;;4963089;28;20055;-57
2024/01/19 10:37:44;;;;;;;6.53;4.85;;;21.80;28.10;;;;;;4958564;28;20078;-58
2024/01/19 10:40:17;;;;;;;9.40;5.40;;;21.80;28.00;;;;;;4962055;28;20050;-58
2024/01/19 10:42:45;;;;;;;6.18;4.85;;;21.80;28.00;;;;;;4961677;28;20051;-58
2024/01/19 10:45:18;;;;;;;8.65;5.50;;;21.80;28.00;;;;;;4963647;28;20054;-59
2024/01/19 10:47:46;;;;;;;7.97;5.18;;;21.80;28.00;;;;;;4958368;28;20054;-55
2024/01/19 10:50:14;;;;;;;8.05;4.95;;;21.70;27.90;;;;;;4950983;28;20492;-57
2024/01/19 10:52:44;;;;;;;8.20;5.47;;;21.70;27.90;;;;;;4954799;28;20070;-57
2024/01/19 10:55:18;;;;;;;8.48;5.40;;;21.70;27.90;;;;;;4961443;28;20051;-58
2024/01/19 10:57:46;;;;;;;7.32;4.95;;;21.70;27.90;;;;;;4949824;28;20060;-58
2024/01/19 11:00:22;;;;;;;7.90;4.30;;;21.70;27.90;;;;;;4953269;28;20058;-57
2024/01/19 11:02:52;;;;;;;10.57;5.70;;;21.60;28.00;;;;;;4952818;28;20061;-58
2024/01/19 11:05:20;;;;;;;11.15;5.63;;;21.60;28.00;;;;;;4954174;28;20054;-59
2024/01/19 11:07:50;;;;;;;8.88;4.70;;;21.60;28.00;;;;;;4948449;28;20526;-59
2024/01/19 11:10:17;;;;;;;6.80;4.40;;;21.50;28.10;;;;;;4945097;28;20499;-59
2024/01/19 11:12:55;;;;;;;7.82;5.03;;;21.50;28.10;;;;;;4951388;28;20062;-59
2024/01/19 11:15:33;;;;;;;19.58;5.65;;;21.50;28.20;;;;;;4937391;28;20052;-59
2024/01/19 11:18:01;;;;;;;17.17;5.65;;;21.50;28.30;;;;;;4952272;28;20066;-59
2024/01/19 11:20:31;;;;;;;9.30;5.45;;;21.50;28.30;;;;;;4946981;28;20050;-59
2024/01/19 11:23:00;;;;;;;12.32;5.50;;;21.40;28.20;;;;;;4950956;28;20513;-60
2024/01/19 11:25:47;;;;;;;10.80;5.50;;;21.40;28.20;;;;;;4948354;28;20636;-60
2024/01/19 11:28:21;;;;;;;8.98;5.38;;;21.40;28.20;;;;;;4951654;28;20424;-59
2024/01/19 11:31:03;;;;;;;13.30;5.80;;;21.30;28.10;;;;;;4946357;28;20051;-59
2024/01/19 11:33:32;;;;;;;9.85;5.70;;;21.30;28.20;;;;;;4950243;28;20059;-60
2024/01/19 11:36:00;;;;;;;12.55;5.63;;;21.30;28.20;;;;;;4947436;28;20051;-58
2024/01/19 11:38:45;;;;;;;10.82;5.40;;;21.30;28.20;;;;;;4946742;28;20055;-60
2024/01/19 11:41:44;;;;;;;8.10;4.97;;;21.30;28.20;;;;;;4940620;28;20492;-59
2024/01/19 11:44:43;;;;;;;9.05;5.32;;;21.30;28.30;;;;;;4942539;28;20141;-61
2024/01/19 11:47:40;;;;;;;8.43;5.00;;;21.40;28.30;;;;;;4950797;28;20400;-60
2024/01/19 11:50:09;;;;;;;6.82;5.47;;;21.40;28.20;;;;;;4948282;28;20055;-60
2024/01/19 12:13:40;;;;;;;7.95;5.30;;;21.70;28.10;;;;;;4957770;28;20046;-60
2024/01/19 12:16:08;;;;;;;9.35;5.65;;;21.70;28.10;;;;;;4948354;28;20503;-60
2024/01/19 12:18:37;;;;;;;9.30;6.03;;;21.70;28.10;;;;;;4950727;28;20055;-60
2024/01/19 12:21:05;;;;;;;8.13;5.88;;;21.70;28.10;;;;;;4952850;28;20057;-59
2024/01/19 12:23:33;;;;;;;9.98;6.28;;;21.60;28.00;;;;;;4946796;28;20058;-60
2024/01/19 12:26:03;;;;;;;9.48;6.03;;;21.60;28.00;;;;;;4943367;28;20060;-60
2024/01/19 12:28:33;;;;;;;9.90;6.07;;;21.60;28.00;;;;;;4950324;28;20070;-59
2024/01/19 12:31:02;;;;;;;10.70;6.07;;;21.60;28.00;;;;;;4949508;28;20062;-58
2024/01/19 12:33:31;;;;;;;10.30;6.10;;;21.60;28.00;;;;;;4950375;28;20062;-59
2024/01/19 12:36:11;;;;;;;11.30;5.93;;;21.60;28.00;;;;;;4941972;28;20051;-60
2024/01/19 12:38:39;;;;;;;9.93;5.97;;;21.50;28.00;;;;;;4947107;28;20491;-60
2024/01/19 12:41:09;;;;;;;12.48;7.00;;;21.50;28.00;;;;;;4941089;28;20056;-60
2024/01/19 12:43:36;;;;;;;8.02;6.10;;;21.50;28.00;;;;;;4949548;28;20055;-60
2024/01/19 12:46:06;;;;;;;8.65;6.05;;;21.50;28.00;;;;;;4953697;28;20055;-59
2024/01/19 12:48:34;;;;;;;8.95;6.20;;;21.50;28.00;;;;;;4939942;28;20056;-58
2024/01/19 12:51:05;;;;;;;8.90;6.05;;;21.40;28.00;;;;;;4953312;28;20058;-59
2024/01/19 12:53:34;;;;;;;9.77;6.45;;;21.40;28.00;;;;;;4952710;28;20054;-58
2024/01/19 12:56:02;;;;;;;8.88;6.10;;;21.40;28.00;;;;;;4942841;28;20499;-57
2024/01/19 12:58:30;;;;;;;6.97;5.57;;;21.30;28.00;;;;;;4950121;28;20569;-59
2024/01/19 13:01:06;;;;;;;10.15;5.53;;;21.30;28.00;;;;;;4951068;28;20043;-59
2024/01/19 13:03:34;;;;;;;9.95;5.95;;;21.30;28.00;;;;;;4943798;28;20058;-58
2024/01/19 13:06:04;;;;;;;9.50;5.78;;;21.20;28.00;;;;;;4954244;28;20054;-58
2024/01/19 13:08:33;;;;;;;8.50;5.72;;;21.20;28.00;;;;;;4943315;28;20047;-58
2024/01/19 13:11:10;;;;;;;11.05;5.80;;;21.20;28.10;;;;;;4945756;28;20062;-59
2024/01/19 13:13:37;;;;;;;7.47;5.00;;;21.20;28.20;;;;;;4944413;28;20059;-63
2024/01/19 13:16:08;;;;;;;18.52;5.00;;;21.20;28.30;;;;;;4949916;28;20047;-58
2024/01/19 13:18:36;;;;;;;7.78;4.22;;;21.20;28.40;;;;;;4949888;28;20054;-58
2024/01/19 13:21:16;;;;;;;10.43;4.47;;;21.20;28.50;;;;;;4944442;28;20051;-59